Kansai — JD3272 — position and weather

sailwx.info

Track history (hours):
 
Tides and Currents Weather Stations Pressure Air Temp Water Temp Dewpoint Dewpoint Depression Visibility Wind Speed Wind Dir Waves Ship Positions

Kansai

Last reported at 2017-May-24 13:00 UTC. Time now 2017-May-24 13:28 UTC.
Position N 35°27' E 139°47'.

Length 73 m; draft 4.2 m.

Type: Cargo ship. MMSI: 431003134.

Date/timePositionNaut miles runAvg speedWind from/ knotsBaromVisibWave heightAir tempDewpointWater temp
2017-May-24 13:00N 35°27' E 139°47'611.3
2017-May-24 12:31N 35°31' E 139°52'10 0.7
2017-May-23 22:37N 35°40' E 139°57'0 0.0
2017-May-22 22:56N 35°40' E 139°57'3 5.2
2017-May-22 22:26N 35°38' E 139°58'2 4.4
2017-May-22 21:58N 35°36' E 139°57'3 5.8
2017-May-22 21:30N 35°34' E 139°55'3 6.0
2017-May-22 21:01N 35°31' E 139°53'3 6.3
2017-May-22 20:31N 35°29' E 139°51'3 6.5
2017-May-22 20:01N 35°26' E 139°49'4 8.1
2017-May-22 19:31N 35°23' E 139°46'5 9.3
2017-May-22 19:01N 35°18' E 139°45'5 9.5
2017-May-22 18:30N 35°14' E 139°47'510.3
2017-May-22 18:01N 35°09' E 139°46'510.2
2017-May-22 17:30N 35°04' E 139°43'510.0
2017-May-22 17:00N 35°01' E 139°38'  
2017-May-16 22:23N 34°40' E 134°45'8 0.4
2017-May-16 00:00N 34°37' E 134°54'611.3
2017-May-15 23:30N 34°37' E 135°01'5 9.2
2017-May-15 23:00N 34°34' E 135°05'611.4
2017-May-15 22:30N 34°29' E 135°03'  
Track history (hours):
 
Tides and Currents Weather Stations Pressure Air Temp Water Temp Dewpoint Dewpoint Depression Visibility Wind Speed Wind Dir Waves Ship Positions

Kansai

Last reported at 2017-May-24 13:00 UTC. Time now 2017-May-24 13:28 UTC.
Position N 35°27' E 139°47'.

Length 73 m; draft 4.2 m.

Type: Cargo ship. MMSI: 431003134.

Date/timePositionNaut miles runAvg speedWind from/ knotsBaromVisibWave heightAir tempDewpointWater temp
2017-May-24 13:00N 35°27' E 139°47'611.3
2017-May-24 12:31N 35°31' E 139°52'10 0.7
2017-May-23 22:37N 35°40' E 139°57'0 0.0
2017-May-22 22:56N 35°40' E 139°57'3 5.2
2017-May-22 22:26N 35°38' E 139°58'2 4.4
2017-May-22 21:58N 35°36' E 139°57'3 5.8
2017-May-22 21:30N 35°34' E 139°55'3 6.0
2017-May-22 21:01N 35°31' E 139°53'3 6.3
2017-May-22 20:31N 35°29' E 139°51'3 6.5
2017-May-22 20:01N 35°26' E 139°49'4 8.1
2017-May-22 19:31N 35°23' E 139°46'5 9.3
2017-May-22 19:01N 35°18' E 139°45'5 9.5
2017-May-22 18:30N 35°14' E 139°47'510.3
2017-May-22 18:01N 35°09' E 139°46'510.2
2017-May-22 17:30N 35°04' E 139°43'510.0
2017-May-22 17:00N 35°01' E 139°38'  
2017-May-16 22:23N 34°40' E 134°45'8 0.4
2017-May-16 00:00N 34°37' E 134°54'611.3
2017-May-15 23:30N 34°37' E 135°01'5 9.2
2017-May-15 23:00N 34°34' E 135°05'611.4
2017-May-15 22:30N 34°29' E 135°03'  

Dump ship's entire track history